sensor_id;sensor_type;location;lat;lon;timestamp;temperature;humidity
69598;SHT31;70000;51.176;-115.568;2023-08-21T00:01:03;23.75;30.40
69598;SHT31;70000;51.176;-115.568;2023-08-21T00:03:35;23.77;30.42
69598;SHT31;70000;51.176;-115.568;2023-08-21T00:06:04;23.78;30.44
69598;SHT31;70000;51.176;-115.568;2023-08-21T00:08:33;23.69;30.41
69598;SHT31;70000;51.176;-115.568;2023-08-21T00:11:02;23.61;30.51
69598;SHT31;70000;51.176;-115.568;2023-08-21T00:13:31;23.56;30.84
69598;SHT31;70000;51.176;-115.568;2023-08-21T00:16:00;23.51;31.10
69598;SHT31;70000;51.176;-115.568;2023-08-21T00:18:30;23.38;31.13
69598;SHT31;70000;51.176;-115.568;2023-08-21T00:20:59;23.29;31.43
69598;SHT31;70000;51.176;-115.568;2023-08-21T00:23:28;23.28;31.47
69598;SHT31;70000;51.176;-115.568;2023-08-21T00:25:57;23.20;31.51
69598;SHT31;70000;51.176;-115.568;2023-08-21T00:28:27;23.08;31.54
69598;SHT31;70000;51.176;-115.568;2023-08-21T00:31:01;22.94;31.92
69598;SHT31;70000;51.176;-115.568;2023-08-21T00:33:33;22.93;32.13
69598;SHT31;70000;51.176;-115.568;2023-08-21T00:36:02;22.91;32.07
69598;SHT31;70000;51.176;-115.568;2023-08-21T00:38:32;22.88;32.25
69598;SHT31;70000;51.176;-115.568;2023-08-21T00:41:01;22.83;32.29
69598;SHT31;70000;51.176;-115.568;2023-08-21T00:43:41;22.74;32.47
69598;SHT31;70000;51.176;-115.568;2023-08-21T00:46:13;22.64;32.69
69598;SHT31;70000;51.176;-115.568;2023-08-21T00:48:48;22.58;32.58
69598;SHT31;70000;51.176;-115.568;2023-08-21T00:51:30;22.56;32.83
69598;SHT31;70000;51.176;-115.568;2023-08-21T00:54:13;22.57;32.80
69598;SHT31;70000;51.176;-115.568;2023-08-21T00:56:43;22.60;32.95
69598;SHT31;70000;51.176;-115.568;2023-08-21T00:59:18;22.61;33.08
69598;SHT31;70000;51.176;-115.568;2023-08-21T01:01:48;22.62;33.06
69598;SHT31;70000;51.176;-115.568;2023-08-21T01:04:26;22.55;33.16
69598;SHT31;70000;51.176;-115.568;2023-08-21T01:07:11;22.47;33.28
69598;SHT31;70000;51.176;-115.568;2023-08-21T01:12:41;22.42;33.57
69598;SHT31;70000;51.176;-115.568;2023-08-21T01:15:34;22.40;33.56
69598;SHT31;70000;51.176;-115.568;2023-08-21T01:18:22;22.27;33.78
69598;SHT31;70000;51.176;-115.568;2023-08-21T01:20:52;22.17;33.88
69598;SHT31;70000;51.176;-115.568;2023-08-21T01:23:47;22.10;34.07
69598;SHT31;70000;51.176;-115.568;2023-08-21T01:26:53;22.01;34.30
69598;SHT31;70000;51.176;-115.568;2023-08-21T01:29:24;21.90;34.36
69598;SHT31;70000;51.176;-115.568;2023-08-21T01:35:38;21.52;34.66
69598;SHT31;70000;51.176;-115.568;2023-08-21T01:38:11;21.40;34.85
69598;SHT31;70000;51.176;-115.568;2023-08-21T01:40:44;21.30;35.12
69598;SHT31;70000;51.176;-115.568;2023-08-21T01:48:09;20.99;35.72
69598;SHT31;70000;51.176;-115.568;2023-08-21T01:51:01;20.78;35.88
69598;SHT31;70000;51.176;-115.568;2023-08-21T01:53:33;20.67;36.22
69598;SHT31;70000;51.176;-115.568;2023-08-21T01:56:15;20.57;36.49
69598;SHT31;70000;51.176;-115.568;2023-08-21T01:58:54;20.45;36.73
69598;SHT31;70000;51.176;-115.568;2023-08-21T02:01:38;20.27;37.11
69598;SHT31;70000;51.176;-115.568;2023-08-21T02:04:13;20.08;37.35
69598;SHT31;70000;51.176;-115.568;2023-08-21T02:06:54;19.84;37.56
69598;SHT31;70000;51.176;-115.568;2023-08-21T02:09:43;19.73;37.83
69598;SHT31;70000;51.176;-115.568;2023-08-21T02:12:25;19.60;38.09
69598;SHT31;70000;51.176;-115.568;2023-08-21T02:16:08;19.43;38.51
69598;SHT31;70000;51.176;-115.568;2023-08-21T02:19:21;19.29;38.74
69598;SHT31;70000;51.176;-115.568;2023-08-21T02:22:02;19.22;38.91
69598;SHT31;70000;51.176;-115.568;2023-08-21T02:24:31;19.11;39.14
69598;SHT31;70000;51.176;-115.568;2023-08-21T02:27:15;19.03;39.24
69598;SHT31;70000;51.176;-115.568;2023-08-21T02:29:46;18.93;39.49
69598;SHT31;70000;51.176;-115.568;2023-08-21T02:32:20;18.80;39.63
69598;SHT31;70000;51.176;-115.568;2023-08-21T02:35:07;18.66;39.94
69598;SHT31;70000;51.176;-115.568;2023-08-21T02:37:59;18.47;40.20
69598;SHT31;70000;51.176;-115.568;2023-08-21T02:40:29;18.34;40.54
69598;SHT31;70000;51.176;-115.568;2023-08-21T02:43:11;18.20;40.82
69598;SHT31;70000;51.176;-115.568;2023-08-21T02:50:03;17.94;41.38
69598;SHT31;70000;51.176;-115.568;2023-08-21T02:52:35;17.84;41.67
69598;SHT31;70000;51.176;-115.568;2023-08-21T02:55:05;17.76;41.84
69598;SHT31;70000;51.176;-115.568;2023-08-21T02:57:38;17.65;42.07
69598;SHT31;70000;51.176;-115.568;2023-08-21T03:00:16;17.57;42.33
69598;SHT31;70000;51.176;-115.568;2023-08-21T03:02:45;17.51;42.56
69598;SHT31;70000;51.176;-115.568;2023-08-21T03:05:14;17.43;42.86
69598;SHT31;70000;51.176;-115.568;2023-08-21T03:07:44;17.34;43.00
69598;SHT31;70000;51.176;-115.568;2023-08-21T03:10:13;17.28;43.06
69598;SHT31;70000;51.176;-115.568;2023-08-21T03:12:42;17.24;43.25
69598;SHT31;70000;51.176;-115.568;2023-08-21T03:15:20;17.20;43.55
69598;SHT31;70000;51.176;-115.568;2023-08-21T03:18:17;17.20;43.75
69598;SHT31;70000;51.176;-115.568;2023-08-21T03:20:50;17.21;43.55
69598;SHT31;70000;51.176;-115.568;2023-08-21T03:23:28;17.21;43.55
69598;SHT31;70000;51.176;-115.568;2023-08-21T03:26:17;17.20;43.60
69598;SHT31;70000;51.176;-115.568;2023-08-21T03:29:07;17.16;43.58
69598;SHT31;70000;51.176;-115.568;2023-08-21T03:35:15;17.07;44.00
69598;SHT31;70000;51.176;-115.568;2023-08-21T03:38:13;16.96;44.02
69598;SHT31;70000;51.176;-115.568;2023-08-21T03:41:08;16.84;44.15
69598;SHT31;70000;51.176;-115.568;2023-08-21T03:44:11;16.74;44.42
69598;SHT31;70000;51.176;-115.568;2023-08-21T03:50:52;16.51;44.90
69598;SHT31;70000;51.176;-115.568;2023-08-21T03:53:59;16.41;45.02
69598;SHT31;70000;51.176;-115.568;2023-08-21T03:56:44;16.33;45.29
69598;SHT31;70000;51.176;-115.568;2023-08-21T03:59:34;16.27;45.40
69598;SHT31;70000;51.176;-115.568;2023-08-21T04:02:34;16.19;45.62
69598;SHT31;70000;51.176;-115.568;2023-08-21T04:07:50;16.05;46.01
69598;SHT31;70000;51.176;-115.568;2023-08-21T04:10:19;15.99;46.16
69598;SHT31;70000;51.176;-115.568;2023-08-21T04:25:51;16.05;46.57
69598;SHT31;70000;51.176;-115.568;2023-08-21T04:28:22;15.99;46.66
69598;SHT31;70000;51.176;-115.568;2023-08-21T04:30:51;15.92;46.76
69598;SHT31;70000;51.176;-115.568;2023-08-21T04:33:21;15.84;46.99
69598;SHT31;70000;51.176;-115.568;2023-08-21T04:35:50;15.75;47.04
69598;SHT31;70000;51.176;-115.568;2023-08-21T04:38:20;15.67;47.16
69598;SHT31;70000;51.176;-115.568;2023-08-21T04:40:49;15.59;47.35
69598;SHT31;70000;51.176;-115.568;2023-08-21T04:43:19;15.52;47.48
69598;SHT31;70000;51.176;-115.568;2023-08-21T04:45:49;15.45;47.63
69598;SHT31;70000;51.176;-115.568;2023-08-21T04:48:22;15.36;47.87
69598;SHT31;70000;51.176;-115.568;2023-08-21T04:50:53;15.28;48.09
69598;SHT31;70000;51.176;-115.568;2023-08-21T04:53:29;15.20;48.30
69598;SHT31;70000;51.176;-115.568;2023-08-21T04:55:59;15.14;48.41
69598;SHT31;70000;51.176;-115.568;2023-08-21T04:58:29;15.09;48.54
69598;SHT31;70000;51.176;-115.568;2023-08-21T05:01:01;15.03;48.71
69598;SHT31;70000;51.176;-115.568;2023-08-21T05:03:35;14.97;48.93
69598;SHT31;70000;51.176;-115.568;2023-08-21T05:06:08;14.91;49.12
69598;SHT31;70000;51.176;-115.568;2023-08-21T05:08:40;14.85;49.33
69598;SHT31;70000;51.176;-115.568;2023-08-21T05:11:11;14.79;49.49
69598;SHT31;70000;51.176;-115.568;2023-08-21T05:13:41;14.72;49.69
69598;SHT31;70000;51.176;-115.568;2023-08-21T05:16:17;14.66;49.88
69598;SHT31;70000;51.176;-115.568;2023-08-21T05:18:46;14.62;50.02
69598;SHT31;70000;51.176;-115.568;2023-08-21T05:21:17;14.57;50.11
69598;SHT31;70000;51.176;-115.568;2023-08-21T05:23:47;14.51;50.27
69598;SHT31;70000;51.176;-115.568;2023-08-21T05:26:16;14.43;50.43
69598;SHT31;70000;51.176;-115.568;2023-08-21T05:28:46;14.36;50.62
69598;SHT31;70000;51.176;-115.568;2023-08-21T05:31:23;14.28;50.85
69598;SHT31;70000;51.176;-115.568;2023-08-21T05:33:53;14.22;51.04
69598;SHT31;70000;51.176;-115.568;2023-08-21T05:36:23;14.17;51.13
69598;SHT31;70000;51.176;-115.568;2023-08-21T05:40:51;14.07;51.33
69598;SHT31;70000;51.176;-115.568;2023-08-21T05:43:54;14.01;51.44
69598;SHT31;70000;51.176;-115.568;2023-08-21T05:46:28;13.94;51.62
69598;SHT31;70000;51.176;-115.568;2023-08-21T05:49:29;13.89;51.67
69598;SHT31;70000;51.176;-115.568;2023-08-21T05:52:47;13.82;51.96
69598;SHT31;70000;51.176;-115.568;2023-08-21T06:03:50;13.74;52.48
69598;SHT31;70000;51.176;-115.568;2023-08-21T06:10:13;13.71;52.48
69598;SHT31;70000;51.176;-115.568;2023-08-21T06:13:14;13.66;52.61
69598;SHT31;70000;51.176;-115.568;2023-08-21T06:15:53;13.62;52.60
69598;SHT31;70000;51.176;-115.568;2023-08-21T06:18:57;13.55;52.79
69598;SHT31;70000;51.176;-115.568;2023-08-21T06:21:38;13.51;52.91
69598;SHT31;70000;51.176;-115.568;2023-08-21T06:24:53;13.43;53.02
69598;SHT31;70000;51.176;-115.568;2023-08-21T06:28:11;13.37;53.19
69598;SHT31;70000;51.176;-115.568;2023-08-21T06:31:01;13.32;53.32
69598;SHT31;70000;51.176;-115.568;2023-08-21T06:34:33;13.25;53.58
69598;SHT31;70000;51.176;-115.568;2023-08-21T06:37:08;13.22;53.71
69598;SHT31;70000;51.176;-115.568;2023-08-21T06:39:44;13.17;53.79
69598;SHT31;70000;51.176;-115.568;2023-08-21T06:42:41;13.14;53.80
69598;SHT31;70000;51.176;-115.568;2023-08-21T06:45:18;13.07;53.91
69598;SHT31;70000;51.176;-115.568;2023-08-21T06:48:07;13.02;54.13
69598;SHT31;70000;51.176;-115.568;2023-08-21T06:50:39;12.98;54.21
69598;SHT31;70000;51.176;-115.568;2023-08-21T06:53:23;12.93;54.26
69598;SHT31;70000;51.176;-115.568;2023-08-21T06:56:12;12.87;54.41
69598;SHT31;70000;51.176;-115.568;2023-08-21T06:59:12;12.81;54.61
69598;SHT31;70000;51.176;-115.568;2023-08-21T07:05:57;12.71;54.96
69598;SHT31;70000;51.176;-115.568;2023-08-21T07:08:54;12.64;55.05
69598;SHT31;70000;51.176;-115.568;2023-08-21T07:11:34;12.59;55.27
69598;SHT31;70000;51.176;-115.568;2023-08-21T07:14:15;12.56;55.50
69598;SHT31;70000;51.176;-115.568;2023-08-21T07:17:14;12.52;55.69
69598;SHT31;70000;51.176;-115.568;2023-08-21T07:19:47;12.47;55.69
69598;SHT31;70000;51.176;-115.568;2023-08-21T07:22:41;12.46;55.75
69598;SHT31;70000;51.176;-115.568;2023-08-21T07:25:11;12.41;55.97
69598;SHT31;70000;51.176;-115.568;2023-08-21T07:28:05;12.35;55.98
69598;SHT31;70000;51.176;-115.568;2023-08-21T07:30:56;12.30;56.16
69598;SHT31;70000;51.176;-115.568;2023-08-21T07:34:31;12.20;56.21
69598;SHT31;70000;51.176;-115.568;2023-08-21T07:37:01;12.12;56.25
69598;SHT31;70000;51.176;-115.568;2023-08-21T07:39:30;12.04;56.40
69598;SHT31;70000;51.176;-115.568;2023-08-21T07:41:59;11.95;56.62
69598;SHT31;70000;51.176;-115.568;2023-08-21T07:44:27;11.90;56.76
69598;SHT31;70000;51.176;-115.568;2023-08-21T07:46:57;11.86;56.86
69598;SHT31;70000;51.176;-115.568;2023-08-21T07:49:26;11.80;56.96
69598;SHT31;70000;51.176;-115.568;2023-08-21T07:51:55;11.74;57.09
69598;SHT31;70000;51.176;-115.568;2023-08-21T07:54:24;11.68;57.19
69598;SHT31;70000;51.176;-115.568;2023-08-21T07:56:53;11.63;57.23
69598;SHT31;70000;51.176;-115.568;2023-08-21T07:59:22;11.58;57.36
69598;SHT31;70000;51.176;-115.568;2023-08-21T08:01:51;11.51;57.48
69598;SHT31;70000;51.176;-115.568;2023-08-21T08:04:20;11.45;57.60
69598;SHT31;70000;51.176;-115.568;2023-08-21T08:06:48;11.41;57.63
69598;SHT31;70000;51.176;-115.568;2023-08-21T08:09:17;11.38;57.74
69598;SHT31;70000;51.176;-115.568;2023-08-21T08:11:46;11.35;57.81
69598;SHT31;70000;51.176;-115.568;2023-08-21T08:17:40;11.25;58.00
69598;SHT31;70000;51.176;-115.568;2023-08-21T08:20:09;11.19;58.07
69598;SHT31;70000;51.176;-115.568;2023-08-21T08:22:41;11.16;58.03
69598;SHT31;70000;51.176;-115.568;2023-08-21T08:25:11;11.13;58.07
69598;SHT31;70000;51.176;-115.568;2023-08-21T08:27:40;11.08;58.03
69598;SHT31;70000;51.176;-115.568;2023-08-21T08:30:09;11.02;58.26
69598;SHT31;70000;51.176;-115.568;2023-08-21T08:32:40;10.97;58.30
69598;SHT31;70000;51.176;-115.568;2023-08-21T08:35:16;10.89;58.47
69598;SHT31;70000;51.176;-115.568;2023-08-21T08:37:45;10.85;58.56
69598;SHT31;70000;51.176;-115.568;2023-08-21T08:40:14;10.81;58.60
69598;SHT31;70000;51.176;-115.568;2023-08-21T08:42:43;10.78;58.70
69598;SHT31;70000;51.176;-115.568;2023-08-21T08:45:14;10.73;58.75
69598;SHT31;70000;51.176;-115.568;2023-08-21T08:47:50;10.69;58.86
69598;SHT31;70000;51.176;-115.568;2023-08-21T08:50:19;10.66;58.93
69598;SHT31;70000;51.176;-115.568;2023-08-21T08:52:48;10.60;59.08
69598;SHT31;70000;51.176;-115.568;2023-08-21T08:55:19;10.56;59.15
69598;SHT31;70000;51.176;-115.568;2023-08-21T08:57:48;10.54;59.20
69598;SHT31;70000;51.176;-115.568;2023-08-21T09:00:17;10.50;59.28
69598;SHT31;70000;51.176;-115.568;2023-08-21T09:02:47;10.46;59.34
69598;SHT31;70000;51.176;-115.568;2023-08-21T09:05:18;10.42;59.39
69598;SHT31;70000;51.176;-115.568;2023-08-21T09:07:56;10.37;59.52
69598;SHT31;70000;51.176;-115.568;2023-08-21T09:10:42;10.30;59.70
69598;SHT31;70000;51.176;-115.568;2023-08-21T09:13:13;10.26;59.82
69598;SHT31;70000;51.176;-115.568;2023-08-21T09:15:47;10.19;59.97
69598;SHT31;70000;51.176;-115.568;2023-08-21T09:18:22;10.14;60.04
69598;SHT31;70000;51.176;-115.568;2023-08-21T09:20:51;10.11;60.25
69598;SHT31;70000;51.176;-115.568;2023-08-21T09:23:20;10.05;60.30
69598;SHT31;70000;51.176;-115.568;2023-08-21T09:25:49;10.02;60.43
69598;SHT31;70000;51.176;-115.568;2023-08-21T09:28:19;9.99;60.49
69598;SHT31;70000;51.176;-115.568;2023-08-21T09:30:50;9.95;60.57
69598;SHT31;70000;51.176;-115.568;2023-08-21T09:33:22;9.89;60.65
69598;SHT31;70000;51.176;-115.568;2023-08-21T09:35:52;9.83;60.74
69598;SHT31;70000;51.176;-115.568;2023-08-21T09:38:22;9.78;60.81
69598;SHT31;70000;51.176;-115.568;2023-08-21T09:40:54;9.76;61.00
69598;SHT31;70000;51.176;-115.568;2023-08-21T09:43:24;9.71;61.10
69598;SHT31;70000;51.176;-115.568;2023-08-21T09:45:54;9.67;61.27
69598;SHT31;70000;51.176;-115.568;2023-08-21T09:48:24;9.63;61.36
69598;SHT31;70000;51.176;-115.568;2023-08-21T09:50:57;9.58;61.46
69598;SHT31;70000;51.176;-115.568;2023-08-21T09:53:29;9.53;61.56
69598;SHT31;70000;51.176;-115.568;2023-08-21T09:55:58;9.50;61.60
69598;SHT31;70000;51.176;-115.568;2023-08-21T09:58:31;9.46;61.70
69598;SHT31;70000;51.176;-115.568;2023-08-21T10:01:02;9.41;61.72
69598;SHT31;70000;51.176;-115.568;2023-08-21T10:03:41;9.38;61.80
69598;SHT31;70000;51.176;-115.568;2023-08-21T10:06:15;9.34;61.91
69598;SHT31;70000;51.176;-115.568;2023-08-21T10:08:48;9.30;62.00
69598;SHT31;70000;51.176;-115.568;2023-08-21T10:11:23;9.24;62.16
69598;SHT31;70000;51.176;-115.568;2023-08-21T10:13:52;9.22;62.33
69598;SHT31;70000;51.176;-115.568;2023-08-21T10:16:21;9.19;62.49
69598;SHT31;70000;51.176;-115.568;2023-08-21T10:18:51;9.17;62.72
69598;SHT31;70000;51.176;-115.568;2023-08-21T10:21:21;9.15;62.81
69598;SHT31;70000;51.176;-115.568;2023-08-21T10:23:55;9.14;62.85
69598;SHT31;70000;51.176;-115.568;2023-08-21T10:26:24;9.11;62.96
69598;SHT31;70000;51.176;-115.568;2023-08-21T10:29:00;9.08;63.05
69598;SHT31;70000;51.176;-115.568;2023-08-21T10:31:35;9.05;63.09
69598;SHT31;70000;51.176;-115.568;2023-08-21T10:34:08;9.03;63.09
69598;SHT31;70000;51.176;-115.568;2023-08-21T10:39:19;8.95;63.32
69598;SHT31;70000;51.176;-115.568;2023-08-21T10:41:56;8.94;63.46
69598;SHT31;70000;51.176;-115.568;2023-08-21T10:47:32;8.92;63.50
69598;SHT31;70000;51.176;-115.568;2023-08-21T10:50:07;8.90;63.54
69598;SHT31;70000;51.176;-115.568;2023-08-21T10:52:38;8.87;63.61
69598;SHT31;70000;51.176;-115.568;2023-08-21T10:55:12;8.85;63.65
69598;SHT31;70000;51.176;-115.568;2023-08-21T10:57:47;8.82;63.74
69598;SHT31;70000;51.176;-115.568;2023-08-21T11:00:18;8.77;63.78
69598;SHT31;70000;51.176;-115.568;2023-08-21T11:02:48;8.76;63.81
69598;SHT31;70000;51.176;-115.568;2023-08-21T11:05:17;8.74;63.85
69598;SHT31;70000;51.176;-115.568;2023-08-21T11:07:48;8.72;63.88
69598;SHT31;70000;51.176;-115.568;2023-08-21T11:10:19;8.70;63.89
69598;SHT31;70000;51.176;-115.568;2023-08-21T11:12:51;8.67;63.91
69598;SHT31;70000;51.176;-115.568;2023-08-21T11:15:28;8.65;63.99
69598;SHT31;70000;51.176;-115.568;2023-08-21T11:17:58;8.63;64.04
69598;SHT31;70000;51.176;-115.568;2023-08-21T11:20:30;8.60;64.15
69598;SHT31;70000;51.176;-115.568;2023-08-21T11:23:04;8.58;64.43
69598;SHT31;70000;51.176;-115.568;2023-08-21T11:25:39;8.54;64.63
69598;SHT31;70000;51.176;-115.568;2023-08-21T11:28:07;8.53;64.71
69598;SHT31;70000;51.176;-115.568;2023-08-21T11:30:36;8.52;64.82
69598;SHT31;70000;51.176;-115.568;2023-08-21T11:33:09;8.50;64.90
69598;SHT31;70000;51.176;-115.568;2023-08-21T11:35:40;8.50;65.02
69598;SHT31;70000;51.176;-115.568;2023-08-21T11:38:16;8.50;65.06
69598;SHT31;70000;51.176;-115.568;2023-08-21T11:40:54;8.46;65.05
69598;SHT31;70000;51.176;-115.568;2023-08-21T11:43:38;8.39;65.22
69598;SHT31;70000;51.176;-115.568;2023-08-21T11:46:09;8.37;65.31
69598;SHT31;70000;51.176;-115.568;2023-08-21T11:48:39;8.35;65.32
69598;SHT31;70000;51.176;-115.568;2023-08-21T11:51:09;8.33;65.15
69598;SHT31;70000;51.176;-115.568;2023-08-21T11:53:39;8.31;65.10
69598;SHT31;70000;51.176;-115.568;2023-08-21T11:56:13;8.28;65.10
69598;SHT31;70000;51.176;-115.568;2023-08-21T11:58:44;8.24;65.01
69598;SHT31;70000;51.176;-115.568;2023-08-21T12:01:18;8.18;65.00
69598;SHT31;70000;51.176;-115.568;2023-08-21T12:03:48;8.14;65.00
69598;SHT31;70000;51.176;-115.568;2023-08-21T12:06:22;8.10;65.00
69598;SHT31;70000;51.176;-115.568;2023-08-21T12:08:52;8.05;65.04
69598;SHT31;70000;51.176;-115.568;2023-08-21T12:11:21;8.05;65.00
69598;SHT31;70000;51.176;-115.568;2023-08-21T12:13:50;8.03;64.83
69598;SHT31;70000;51.176;-115.568;2023-08-21T12:16:19;8.00;64.90
69598;SHT31;70000;51.176;-115.568;2023-08-21T12:18:49;7.99;64.95
69598;SHT31;70000;51.176;-115.568;2023-08-21T12:21:18;7.95;64.94
69598;SHT31;70000;51.176;-115.568;2023-08-21T12:23:49;7.90;65.05
69598;SHT31;70000;51.176;-115.568;2023-08-21T12:26:18;7.84;65.28
69598;SHT31;70000;51.176;-115.568;2023-08-21T12:29:00;7.81;65.40
69598;SHT31;70000;51.176;-115.568;2023-08-21T12:31:29;7.77;65.56
69598;SHT31;70000;51.176;-115.568;2023-08-21T12:33:58;7.75;65.85
69598;SHT31;70000;51.176;-115.568;2023-08-21T12:39:56;7.79;66.00
69598;SHT31;70000;51.176;-115.568;2023-08-21T12:42:25;7.80;66.03
69598;SHT31;70000;51.176;-115.568;2023-08-21T12:44:54;7.79;66.12
69598;SHT31;70000;51.176;-115.568;2023-08-21T12:47:24;7.79;66.13
69598;SHT31;70000;51.176;-115.568;2023-08-21T12:49:54;7.79;66.12
69598;SHT31;70000;51.176;-115.568;2023-08-21T12:52:23;7.80;66.11
69598;SHT31;70000;51.176;-115.568;2023-08-21T12:54:52;7.79;66.07
69598;SHT31;70000;51.176;-115.568;2023-08-21T12:57:21;7.77;66.04
69598;SHT31;70000;51.176;-115.568;2023-08-21T12:59:51;7.75;66.00
69598;SHT31;70000;51.176;-115.568;2023-08-21T13:02:21;7.72;66.04
69598;SHT31;70000;51.176;-115.568;2023-08-21T13:04:52;7.66;66.18
69598;SHT31;70000;51.176;-115.568;2023-08-21T13:07:22;7.61;66.30
69598;SHT31;70000;51.176;-115.568;2023-08-21T13:09:52;7.58;66.37
69598;SHT31;70000;51.176;-115.568;2023-08-21T13:12:21;7.57;66.40
69598;SHT31;70000;51.176;-115.568;2023-08-21T13:14:50;7.54;66.46
69598;SHT31;70000;51.176;-115.568;2023-08-21T13:17:22;7.47;66.59
69598;SHT31;70000;51.176;-115.568;2023-08-21T13:19:52;7.45;66.71
69598;SHT31;70000;51.176;-115.568;2023-08-21T13:22:21;7.42;66.83
69598;SHT31;70000;51.176;-115.568;2023-08-21T13:24:50;7.42;66.89
69598;SHT31;70000;51.176;-115.568;2023-08-21T13:27:20;7.43;66.96
69598;SHT31;70000;51.176;-115.568;2023-08-21T13:29:49;7.44;66.90
69598;SHT31;70000;51.176;-115.568;2023-08-21T13:32:19;7.43;66.99
69598;SHT31;70000;51.176;-115.568;2023-08-21T13:34:48;7.42;67.07
69598;SHT31;70000;51.176;-115.568;2023-08-21T13:37:18;7.45;67.10
69598;SHT31;70000;51.176;-115.568;2023-08-21T13:39:47;7.46;67.06
69598;SHT31;70000;51.176;-115.568;2023-08-21T13:42:16;7.45;67.13
69598;SHT31;70000;51.176;-115.568;2023-08-21T13:44:46;7.48;67.20
69598;SHT31;70000;51.176;-115.568;2023-08-21T13:47:16;7.50;67.26
69598;SHT31;70000;51.176;-115.568;2023-08-21T13:49:46;7.52;67.21
69598;SHT31;70000;51.176;-115.568;2023-08-21T13:52:16;7.54;67.17
69598;SHT31;70000;51.176;-115.568;2023-08-21T13:55:03;7.54;67.10
69598;SHT31;70000;51.176;-115.568;2023-08-21T14:00:58;7.60;67.20
69598;SHT31;70000;51.176;-115.568;2023-08-21T14:03:27;7.61;67.35
69598;SHT31;70000;51.176;-115.568;2023-08-21T14:05:55;7.62;67.44
69598;SHT31;70000;51.176;-115.568;2023-08-21T14:08:24;7.64;67.59
69598;SHT31;70000;51.176;-115.568;2023-08-21T14:10:53;7.66;67.70
69598;SHT31;70000;51.176;-115.568;2023-08-21T14:13:23;7.69;67.78
69598;SHT31;70000;51.176;-115.568;2023-08-21T14:15:52;7.70;67.88
69598;SHT31;70000;51.176;-115.568;2023-08-21T14:18:20;7.71;67.99
69598;SHT31;70000;51.176;-115.568;2023-08-21T14:20:49;7.74;68.08
69598;SHT31;70000;51.176;-115.568;2023-08-21T14:23:18;7.76;68.08
69598;SHT31;70000;51.176;-115.568;2023-08-21T14:25:47;7.79;68.10
69598;SHT31;70000;51.176;-115.568;2023-08-21T14:28:16;7.82;68.15
69598;SHT31;70000;51.176;-115.568;2023-08-21T14:30:46;7.86;68.33
69598;SHT31;70000;51.176;-115.568;2023-08-21T14:33:15;7.91;68.50
69598;SHT31;70000;51.176;-115.568;2023-08-21T14:35:44;7.96;68.53
69598;SHT31;70000;51.176;-115.568;2023-08-21T14:38:14;8.03;68.40
69598;SHT31;70000;51.176;-115.568;2023-08-21T14:40:43;8.09;68.18
69598;SHT31;70000;51.176;-115.568;2023-08-21T14:43:12;8.15;67.92
69598;SHT31;70000;51.176;-115.568;2023-08-21T14:45:40;8.21;68.03
69598;SHT31;70000;51.176;-115.568;2023-08-21T14:48:09;8.29;67.97
69598;SHT31;70000;51.176;-115.568;2023-08-21T14:50:38;8.36;67.99
69598;SHT31;70000;51.176;-115.568;2023-08-21T14:53:08;8.43;68.19
69598;SHT31;70000;51.176;-115.568;2023-08-21T14:55:36;8.52;68.13
69598;SHT31;70000;51.176;-115.568;2023-08-21T14:58:05;8.63;67.97
69598;SHT31;70000;51.176;-115.568;2023-08-21T15:00:36;8.73;67.57
69598;SHT31;70000;51.176;-115.568;2023-08-21T15:03:05;8.80;67.48
69598;SHT31;70000;51.176;-115.568;2023-08-21T15:05:34;8.87;67.44
69598;SHT31;70000;51.176;-115.568;2023-08-21T15:08:03;8.94;67.31
69598;SHT31;70000;51.176;-115.568;2023-08-21T15:10:32;9.03;67.39
69598;SHT31;70000;51.176;-115.568;2023-08-21T15:13:01;9.14;66.96
69598;SHT31;70000;51.176;-115.568;2023-08-21T15:15:30;9.21;66.56
69598;SHT31;70000;51.176;-115.568;2023-08-21T15:17:58;9.25;66.40
69598;SHT31;70000;51.176;-115.568;2023-08-21T15:20:30;9.31;66.28
69598;SHT31;70000;51.176;-115.568;2023-08-21T15:22:59;9.35;66.18
69598;SHT31;70000;51.176;-115.568;2023-08-21T15:25:28;9.41;66.16
69598;SHT31;70000;51.176;-115.568;2023-08-21T15:27:57;9.47;66.18
69598;SHT31;70000;51.176;-115.568;2023-08-21T15:31:10;9.56;66.18
69598;SHT31;70000;51.176;-115.568;2023-08-21T15:33:41;9.62;66.02
69598;SHT31;70000;51.176;-115.568;2023-08-21T15:36:32;9.71;65.90
69598;SHT31;70000;51.176;-115.568;2023-08-21T15:39:04;9.76;65.80
69598;SHT31;70000;51.176;-115.568;2023-08-21T15:41:45;9.78;65.77
69598;SHT31;70000;51.176;-115.568;2023-08-21T15:44:29;9.80;65.72
69598;SHT31;70000;51.176;-115.568;2023-08-21T15:47:11;9.90;65.67
69598;SHT31;70000;51.176;-115.568;2023-08-21T15:50:15;10.03;65.50
69598;SHT31;70000;51.176;-115.568;2023-08-21T15:53:03;10.13;65.34
69598;SHT31;70000;51.176;-115.568;2023-08-21T15:55:38;10.25;65.27
69598;SHT31;70000;51.176;-115.568;2023-08-21T15:58:24;10.36;65.23
69598;SHT31;70000;51.176;-115.568;2023-08-21T16:01:03;10.45;64.90
69598;SHT31;70000;51.176;-115.568;2023-08-21T16:03:56;10.55;64.66
69598;SHT31;70000;51.176;-115.568;2023-08-21T16:06:25;10.67;64.50
69598;SHT31;70000;51.176;-115.568;2023-08-21T16:09:01;10.83;64.19
69598;SHT31;70000;51.176;-115.568;2023-08-21T16:11:53;11.06;63.85
69598;SHT31;70000;51.176;-115.568;2023-08-21T16:14:43;11.26;63.90
69598;SHT31;70000;51.176;-115.568;2023-08-21T16:17:59;11.40;63.12
69598;SHT31;70000;51.176;-115.568;2023-08-21T16:21:11;11.57;62.68
69598;SHT31;70000;51.176;-115.568;2023-08-21T16:24:00;11.76;62.53
69598;SHT31;70000;51.176;-115.568;2023-08-21T16:26:39;11.93;62.11
69598;SHT31;70000;51.176;-115.568;2023-08-21T16:29:12;12.06;61.81
69598;SHT31;70000;51.176;-115.568;2023-08-21T16:31:47;12.18;61.43
69598;SHT31;70000;51.176;-115.568;2023-08-21T16:34:17;12.28;61.24
69598;SHT31;70000;51.176;-115.568;2023-08-21T16:37:35;12.43;60.96
69598;SHT31;70000;51.176;-115.568;2023-08-21T16:40:52;12.60;60.62
69598;SHT31;70000;51.176;-115.568;2023-08-21T16:44:09;12.80;60.22
69598;SHT31;70000;51.176;-115.568;2023-08-21T16:47:10;12.95;59.84
69598;SHT31;70000;51.176;-115.568;2023-08-21T16:49:40;13.05;59.51
69598;SHT31;70000;51.176;-115.568;2023-08-21T16:52:09;13.15;59.28
69598;SHT31;70000;51.176;-115.568;2023-08-21T16:54:39;13.27;59.12
69598;SHT31;70000;51.176;-115.568;2023-08-21T16:57:08;13.40;58.89
69598;SHT31;70000;51.176;-115.568;2023-08-21T16:59:38;13.52;58.57